createdAt,value
2018-11-14T00:01:37.988Z,66.10
2018-11-14T00:04:05.397Z,64.56
2018-11-14T00:06:34.472Z,65.19
2018-11-14T00:09:02.158Z,66.06
2018-11-14T00:11:30.426Z,66.44
2018-11-14T00:13:59.235Z,65.39
2018-11-14T00:16:26.466Z,65.67
2018-11-14T00:18:53.797Z,65.20
2018-11-14T00:21:20.316Z,65.58
2018-11-14T00:23:47.037Z,65.59
2018-11-14T00:26:13.868Z,65.08
2018-11-14T00:31:12.775Z,66.42
2018-11-14T00:33:40.667Z,67.61
2018-11-14T00:36:10.425Z,68.50
2018-11-14T00:38:37.546Z,68.08
2018-11-14T00:41:05.576Z,67.40
2018-11-14T00:43:32.972Z,66.06
2018-11-14T00:46:00.518Z,65.72
2018-11-14T00:48:30.188Z,65.37
2018-11-14T00:50:58.729Z,65.79
2018-11-14T00:53:26.299Z,65.20
2018-11-14T00:55:54.682Z,65.56
2018-11-14T00:58:21.941Z,65.45
2018-11-14T01:03:22.264Z,65.88
2018-11-14T01:05:50.267Z,65.35
2018-11-14T01:08:17.775Z,66.61
2018-11-14T01:10:45.213Z,65.58
2018-11-14T01:13:13.467Z,67.16
2018-11-14T01:15:42.341Z,67.73
2018-11-14T01:18:09.914Z,67.10
2018-11-14T01:23:22.783Z,67.63
2018-11-14T01:25:51.465Z,67.80
2018-11-14T01:28:18.583Z,68.13
2018-11-14T01:30:47.620Z,67.94
2018-11-14T01:33:14.856Z,68.41
2018-11-14T01:35:41.363Z,67.73
2018-11-14T01:38:08.018Z,66.37
2018-11-14T01:40:34.486Z,66.02
2018-11-14T01:43:00.984Z,66.87
2018-11-14T01:45:27.496Z,67.53
2018-11-14T01:47:54.131Z,67.15
2018-11-14T01:50:20.780Z,67.32
2018-11-14T01:52:47.413Z,66.06
2018-11-14T01:55:13.879Z,65.17
2018-11-14T01:57:40.766Z,65.58
2018-11-14T02:00:07.277Z,66.23
2018-11-14T02:02:33.714Z,66.23
2018-11-14T02:05:00.666Z,66.42
2018-11-14T02:07:27.347Z,67.13
2018-11-14T02:09:53.875Z,67.32
2018-11-14T02:12:20.406Z,66.81
2018-11-14T02:14:46.958Z,66.94
2018-11-14T02:17:13.422Z,66.49
2018-11-14T02:19:40.981Z,67.78
2018-11-14T02:22:07.445Z,66.91
2018-11-14T02:24:33.952Z,66.90
2018-11-14T02:27:00.506Z,66.77
2018-11-14T02:29:26.992Z,66.71
2018-11-14T02:31:53.510Z,67.25
2018-11-14T02:34:20.006Z,67.43
2018-11-14T02:36:46.491Z,67.21
2018-11-14T02:39:12.974Z,67.42
2018-11-14T02:41:39.458Z,67.74
2018-11-14T02:44:06.925Z,67.56
2018-11-14T02:46:33.409Z,67.11
2018-11-14T02:48:59.962Z,66.99
2018-11-14T02:54:35.405Z,66.96
2018-11-14T02:57:02.031Z,66.56
2018-11-14T02:59:28.520Z,66.90
2018-11-14T03:01:54.987Z,68.96
2018-11-14T03:04:21.484Z,70.06
2018-11-14T03:06:47.984Z,70.00
2018-11-14T03:09:14.509Z,70.33
2018-11-14T03:11:42.927Z,69.56
2018-11-14T03:14:09.461Z,69.21
2018-11-14T03:16:36.169Z,68.46
2018-11-14T03:19:02.804Z,67.38
2018-11-14T03:21:29.292Z,67.52
2018-11-14T03:23:55.773Z,67.24
2018-11-14T03:26:22.257Z,66.75
2018-11-14T03:28:48.745Z,66.72
2018-11-14T03:31:15.231Z,67.01
2018-11-14T03:33:42.174Z,66.80
2018-11-14T03:36:09.735Z,67.32
2018-11-14T03:38:36.318Z,67.21
2018-11-14T03:41:03.164Z,68.03
2018-11-14T03:43:30.389Z,68.11
2018-11-14T03:45:57.538Z,68.31
2018-11-14T03:48:24.035Z,68.60
2018-11-14T03:50:50.842Z,68.08
2018-11-14T03:53:17.342Z,68.05
2018-11-14T03:55:43.850Z,67.97
2018-11-14T03:58:10.415Z,68.78
2018-11-14T04:00:38.527Z,68.41
2018-11-14T04:03:06.824Z,68.72
2018-11-14T04:05:33.818Z,68.34
2018-11-14T04:08:01.943Z,67.68
2018-11-14T04:10:29.199Z,67.75
2018-11-14T04:12:56.491Z,67.49
2018-11-14T04:15:23.967Z,68.05
2018-11-14T04:17:51.516Z,68.00
2018-11-14T04:20:18.011Z,67.20
2018-11-14T04:22:44.700Z,66.72
2018-11-14T04:25:11.364Z,67.18
2018-11-14T04:27:37.848Z,67.40
2018-11-14T04:30:04.459Z,67.05
2018-11-14T04:32:30.985Z,67.92
2018-11-14T04:34:57.474Z,68.68
2018-11-14T04:37:23.928Z,68.21
2018-11-14T04:39:50.470Z,69.12
2018-11-14T04:42:17.010Z,68.90
2018-11-14T04:44:44.552Z,68.63
2018-11-14T04:47:11.060Z,68.86
2018-11-14T04:49:37.690Z,68.51
2018-11-14T04:52:04.198Z,67.92
2018-11-14T04:54:30.738Z,67.15
2018-11-14T04:56:57.263Z,66.70
2018-11-14T04:59:23.709Z,66.42
2018-11-14T05:01:50.946Z,66.54
2018-11-14T05:04:17.449Z,66.62
2018-11-14T05:06:44.832Z,67.08
2018-11-14T05:09:11.270Z,66.76
2018-11-14T05:11:37.724Z,66.01
2018-11-14T05:14:04.186Z,66.53
2018-11-14T05:16:31.244Z,66.54
2018-11-14T05:18:57.746Z,66.55
2018-11-14T05:21:24.191Z,66.63
2018-11-14T05:23:50.683Z,66.93
2018-11-14T05:26:17.221Z,67.58
2018-11-14T05:28:43.760Z,66.82
2018-11-14T05:31:10.220Z,67.22
2018-11-14T05:33:37.905Z,67.28
2018-11-14T05:36:04.455Z,68.45
2018-11-14T05:38:30.947Z,68.50
2018-11-14T05:40:57.714Z,68.82
2018-11-14T05:43:24.151Z,69.52
2018-11-14T05:45:50.648Z,68.98
2018-11-14T05:48:17.277Z,67.97
2018-11-14T05:50:43.749Z,68.91
2018-11-14T05:53:10.182Z,69.84
2018-11-14T05:55:36.766Z,69.74
2018-11-14T05:58:03.212Z,69.13
2018-11-14T06:00:29.668Z,69.33
2018-11-14T06:02:56.200Z,68.67
2018-11-14T06:05:22.712Z,69.70
2018-11-14T06:07:49.183Z,69.16
2018-11-14T06:10:15.994Z,70.18
2018-11-14T06:12:42.550Z,70.38
2018-11-14T06:15:09.082Z,70.13
2018-11-14T06:17:35.833Z,69.84
2018-11-14T06:20:02.333Z,69.36
2018-11-14T06:22:28.897Z,68.94
2018-11-14T06:24:55.373Z,68.42
2018-11-14T06:27:21.797Z,68.79
2018-11-14T06:29:48.272Z,68.37
2018-11-14T06:32:15.669Z,67.92
2018-11-14T06:34:42.117Z,68.12
2018-11-14T06:37:08.585Z,69.34
2018-11-14T06:39:35.028Z,70.08
2018-11-14T06:42:01.567Z,69.94
2018-11-14T06:44:28.072Z,69.58
2018-11-14T06:46:54.613Z,69.86
2018-11-14T06:49:21.119Z,69.47
2018-11-14T06:51:47.668Z,69.43
2018-11-14T06:54:14.114Z,67.77
2018-11-14T06:56:40.590Z,69.64
2018-11-14T06:59:07.182Z,71.00
2018-11-14T07:01:33.733Z,71.19
2018-11-14T07:04:00.339Z,70.16
2018-11-14T07:06:28.224Z,71.03
2018-11-14T07:08:54.761Z,70.50
2018-11-14T07:11:21.802Z,70.82
2018-11-14T07:13:52.279Z,69.73
2018-11-14T07:16:27.813Z,68.11
2018-11-14T07:18:54.406Z,68.43
2018-11-14T07:21:20.875Z,70.45
2018-11-14T07:23:48.450Z,71.42
2018-11-14T07:26:16.500Z,71.64
2018-11-14T07:28:42.957Z,72.31
2018-11-14T07:31:09.433Z,72.48
2018-11-14T07:33:36.051Z,71.64
2018-11-14T07:36:02.541Z,71.15
2018-11-14T07:38:29.005Z,70.69
2018-11-14T07:40:55.466Z,70.28
2018-11-14T07:43:21.995Z,70.49
2018-11-14T07:45:48.475Z,71.61
2018-11-14T07:48:16.115Z,71.77
2018-11-14T07:50:42.625Z,70.65
2018-11-14T07:53:09.152Z,70.89
2018-11-14T07:55:36.042Z,70.06
2018-11-14T07:58:02.497Z,68.07
2018-11-14T08:00:28.961Z,67.67
2018-11-14T08:02:55.447Z,66.72
2018-11-14T08:05:22.011Z,67.44
2018-11-14T08:07:48.521Z,69.13
2018-11-14T08:10:16.403Z,69.33
2018-11-14T08:12:42.913Z,68.31
2018-11-14T08:15:09.437Z,68.74
2018-11-14T08:17:36.151Z,68.33
2018-11-14T08:20:02.685Z,67.13
2018-11-14T08:22:29.451Z,67.59
2018-11-14T08:24:56.100Z,66.34
2018-11-14T08:27:22.751Z,65.41
2018-11-14T08:29:49.236Z,64.47
2018-11-14T08:32:16.724Z,63.87
2018-11-14T08:34:43.284Z,64.15
2018-11-14T08:37:09.780Z,64.24
2018-11-14T08:39:36.290Z,64.21
2018-11-14T08:42:02.723Z,64.49
2018-11-14T08:44:29.464Z,64.41
2018-11-14T08:46:56.024Z,61.91
2018-11-14T08:49:22.537Z,62.43
2018-11-14T08:51:49.031Z,63.38
2018-11-14T08:54:17.589Z,63.42
2018-11-14T08:56:44.040Z,63.72
2018-11-14T08:59:11.663Z,63.45
2018-11-14T09:01:38.179Z,64.91
2018-11-14T09:04:04.711Z,66.01
2018-11-14T09:06:31.367Z,66.16
2018-11-14T09:08:58.096Z,66.45
2018-11-14T09:11:24.626Z,65.89
2018-11-14T09:13:51.292Z,63.84
2018-11-14T09:16:18.840Z,62.50
2018-11-14T09:18:45.425Z,61.75
2018-11-14T09:21:11.972Z,62.79
2018-11-14T09:23:38.457Z,63.60
2018-11-14T09:26:05.179Z,62.82
2018-11-14T09:28:31.739Z,63.26
2018-11-14T09:30:58.390Z,65.47
2018-11-14T09:33:25.722Z,65.34
2018-11-14T09:35:52.271Z,64.78
2018-11-14T09:38:19.284Z,64.01
2018-11-14T09:40:45.842Z,62.68
2018-11-14T09:43:13.121Z,62.76
2018-11-14T09:45:39.648Z,62.33
2018-11-14T09:48:06.115Z,64.24
2018-11-14T09:50:32.567Z,63.14
2018-11-14T09:52:59.059Z,63.43
2018-11-14T09:55:25.960Z,61.99
2018-11-14T09:57:52.446Z,62.09
2018-11-14T10:00:18.911Z,63.06
2018-11-14T10:02:45.407Z,62.00
2018-11-14T10:05:12.413Z,62.16
2018-11-14T10:07:38.906Z,61.96
2018-11-14T10:10:05.556Z,62.84
2018-11-14T10:12:32.091Z,62.52
2018-11-14T10:14:58.711Z,62.29
2018-11-14T10:17:25.219Z,61.86
2018-11-14T10:19:51.887Z,60.57
2018-11-14T10:22:18.398Z,58.35
2018-11-14T10:24:44.907Z,59.26
2018-11-14T10:27:11.544Z,58.59
2018-11-14T10:29:38.124Z,57.10
2018-11-14T10:32:04.595Z,58.21
2018-11-14T10:34:31.068Z,59.47
2018-11-14T10:36:57.579Z,59.46
2018-11-14T10:39:24.069Z,58.25
2018-11-14T10:41:51.620Z,58.16
2018-11-14T10:44:18.097Z,59.24
2018-11-14T10:46:44.553Z,57.77
2018-11-14T10:49:11.024Z,57.77
2018-11-14T10:51:37.601Z,56.16
2018-11-14T10:54:04.064Z,56.53
2018-11-14T10:56:30.546Z,60.11
2018-11-14T10:58:57.044Z,60.44
2018-11-14T11:01:23.504Z,60.56
2018-11-14T11:03:49.975Z,60.65
2018-11-14T11:06:16.533Z,61.15
2018-11-14T11:08:43.122Z,60.10
2018-11-14T11:11:09.727Z,60.89
2018-11-14T11:13:36.186Z,60.52
2018-11-14T11:16:05.194Z,62.08
2018-11-14T11:18:31.674Z,60.34
2018-11-14T11:20:58.319Z,58.48
2018-11-14T11:23:24.841Z,57.09
2018-11-14T11:28:23.495Z,54.95
2018-11-14T11:30:49.995Z,54.32
2018-11-14T11:33:16.613Z,54.36
2018-11-14T11:35:43.165Z,54.91
2018-11-14T11:38:09.736Z,55.14
2018-11-14T11:40:36.779Z,54.20
2018-11-14T11:43:03.298Z,53.10
2018-11-14T11:45:31.093Z,53.12
2018-11-14T11:47:57.657Z,54.65
2018-11-14T11:50:24.141Z,55.12
2018-11-14T11:52:50.607Z,55.90
2018-11-14T11:55:17.110Z,54.98
2018-11-14T11:57:43.681Z,52.85
2018-11-14T12:00:10.224Z,51.92
2018-11-14T12:02:36.916Z,50.73
2018-11-14T12:07:36.188Z,50.29
2018-11-14T12:10:02.636Z,52.32
2018-11-14T12:12:29.191Z,52.80
2018-11-14T12:14:55.721Z,53.19
2018-11-14T12:17:22.224Z,50.92
2018-11-14T12:19:48.695Z,51.36
2018-11-14T12:22:15.209Z,50.48
2018-11-14T12:24:41.670Z,50.20
2018-11-14T12:27:08.223Z,49.28
2018-11-14T12:29:34.854Z,48.91
2018-11-14T12:32:01.528Z,49.49
2018-11-14T12:34:28.099Z,51.00
2018-11-14T12:36:54.676Z,50.01
2018-11-14T12:39:21.172Z,49.40
2018-11-14T12:41:47.697Z,48.15
2018-11-14T12:44:14.303Z,48.67
2018-11-14T12:46:43.753Z,50.51
2018-11-14T12:49:10.586Z,50.02
2018-11-14T12:51:37.048Z,48.90
2018-11-14T12:54:03.518Z,47.86
2018-11-14T12:56:29.977Z,48.81
2018-11-14T12:58:56.423Z,52.26
2018-11-14T13:01:22.897Z,54.22
2018-11-14T13:03:49.356Z,53.23
2018-11-14T13:06:15.838Z,51.75
2018-11-14T13:08:42.281Z,49.43
2018-11-14T13:11:08.775Z,49.98
2018-11-14T13:13:35.229Z,50.73
2018-11-14T13:16:01.716Z,49.06
2018-11-14T13:18:28.234Z,50.74
2018-11-14T13:20:54.684Z,50.33
2018-11-14T13:23:21.157Z,48.32
2018-11-14T13:25:47.919Z,48.95
2018-11-14T13:28:14.357Z,50.00
2018-11-14T13:30:40.916Z,50.96
2018-11-14T13:33:07.400Z,49.33
2018-11-14T13:35:33.868Z,47.92
2018-11-14T13:38:00.355Z,48.08
2018-11-14T13:40:26.892Z,50.06
2018-11-14T13:42:53.395Z,52.20
2018-11-14T13:45:19.817Z,53.04
2018-11-14T13:52:50.019Z,53.57
2018-11-14T13:55:17.107Z,51.85
2018-11-14T13:57:44.596Z,51.37
2018-11-14T14:00:11.144Z,51.26
2018-11-14T14:02:37.612Z,52.16
2018-11-14T14:05:04.186Z,52.92
2018-11-14T14:07:30.665Z,52.75
2018-11-14T14:09:57.127Z,53.53
2018-11-14T14:12:23.587Z,52.92
2018-11-14T14:14:50.062Z,52.83
2018-11-14T14:17:17.274Z,52.24
2018-11-14T14:22:15.341Z,52.92
2018-11-14T14:24:42.042Z,52.17
2018-11-14T14:27:08.493Z,52.80
2018-11-14T14:29:35.021Z,53.22
2018-11-14T14:32:01.471Z,52.47
2018-11-14T14:34:27.908Z,52.94
2018-11-14T14:36:54.512Z,52.17
2018-11-14T14:39:21.037Z,52.82
2018-11-14T14:41:47.497Z,52.38
2018-11-14T14:44:13.945Z,52.22
2018-11-14T14:46:40.389Z,52.58
2018-11-14T14:49:06.852Z,52.42
2018-11-14T14:54:06.213Z,52.98
2018-11-14T14:56:32.697Z,53.11
2018-11-14T14:58:59.318Z,52.18
2018-11-14T15:01:25.810Z,53.75
2018-11-14T15:03:52.951Z,53.95
2018-11-14T15:06:19.428Z,54.11
2018-11-14T15:08:46.132Z,53.34
2018-11-14T15:11:12.611Z,54.03
2018-11-14T15:13:39.092Z,54.39
2018-11-14T15:16:06.625Z,54.49
2018-11-14T15:18:33.166Z,55.33
2018-11-14T15:21:00.464Z,55.21
2018-11-14T15:23:26.966Z,55.36
2018-11-14T15:25:53.433Z,56.41
2018-11-14T15:28:20.748Z,56.38
2018-11-14T15:30:47.353Z,56.77
2018-11-14T15:33:14.069Z,56.40
2018-11-14T15:35:40.818Z,57.32
2018-11-14T15:38:09.115Z,58.00
2018-11-14T15:40:35.567Z,57.65
2018-11-14T15:43:02.086Z,57.32
2018-11-14T15:45:28.549Z,57.31
2018-11-14T15:47:55.151Z,58.36
2018-11-14T15:50:21.612Z,58.19
2018-11-14T15:52:48.124Z,58.24
2018-11-14T15:55:14.649Z,59.56
2018-11-14T15:57:41.136Z,59.17
2018-11-14T16:00:07.828Z,59.14
2018-11-14T16:02:34.285Z,58.17
2018-11-14T16:05:00.790Z,57.99
2018-11-14T16:07:27.305Z,58.51
2018-11-14T16:09:53.767Z,59.17
2018-11-14T16:12:20.258Z,61.49
2018-11-14T16:14:46.742Z,62.67
2018-11-14T16:17:13.605Z,62.74
2018-11-14T16:19:41.221Z,62.61
2018-11-14T16:22:07.722Z,61.06
2018-11-14T16:24:34.236Z,60.35
2018-11-14T16:27:00.839Z,59.50
2018-11-14T16:29:27.429Z,58.77
2018-11-14T16:31:54.023Z,58.83
2018-11-14T16:34:20.680Z,58.52
2018-11-14T16:36:47.919Z,58.54
2018-11-14T16:39:14.391Z,59.18
2018-11-14T16:41:41.648Z,59.07
2018-11-14T16:44:08.145Z,59.50
2018-11-14T16:46:34.596Z,59.64
2018-11-14T16:49:01.412Z,58.95
2018-11-14T16:51:27.917Z,59.41
2018-11-14T16:53:54.481Z,59.08
2018-11-14T16:56:20.957Z,58.83
2018-11-14T16:58:50.985Z,60.18
2018-11-14T17:01:17.456Z,60.56
2018-11-14T17:03:44.056Z,61.30
2018-11-14T17:06:11.682Z,61.28
2018-11-14T17:08:38.157Z,61.31
2018-11-14T17:11:04.767Z,60.82
2018-11-14T17:13:31.528Z,61.56
2018-11-14T17:15:57.978Z,61.53
2018-11-14T17:18:24.449Z,60.97
2018-11-14T17:20:51.098Z,60.68
2018-11-14T17:23:17.547Z,61.90
2018-11-14T17:25:44.101Z,61.67
2018-11-14T17:28:11.861Z,63.15
2018-11-14T17:30:38.409Z,63.48
2018-11-14T17:33:04.980Z,64.36
2018-11-14T17:35:31.506Z,65.28
2018-11-14T17:37:58.671Z,66.24
2018-11-14T17:40:25.188Z,66.24
2018-11-14T17:42:51.750Z,65.88
2018-11-14T17:45:18.402Z,64.07
2018-11-14T17:47:44.888Z,63.24
2018-11-14T17:50:11.506Z,63.93
2018-11-14T17:52:38.115Z,63.94
2018-11-14T17:55:04.971Z,64.26
2018-11-14T17:57:31.496Z,63.85
2018-11-14T17:59:57.977Z,64.27
2018-11-14T18:02:24.454Z,63.53
2018-11-14T18:04:51.144Z,63.46
2018-11-14T18:07:18.046Z,62.40
2018-11-14T18:09:45.413Z,62.32
2018-11-14T18:12:12.320Z,62.46
2018-11-14T18:14:38.911Z,62.45
2018-11-14T18:17:05.520Z,62.96
2018-11-14T18:19:33.308Z,63.14
2018-11-14T18:21:59.808Z,62.96
2018-11-14T18:24:26.294Z,62.64
2018-11-14T18:26:52.786Z,62.59
2018-11-14T18:29:19.539Z,63.45
2018-11-14T18:31:45.850Z,63.27
2018-11-14T18:34:12.420Z,62.93
2018-11-14T18:36:39.763Z,63.70
2018-11-14T18:39:06.909Z,64.49
2018-11-14T18:41:33.377Z,64.76
2018-11-14T18:43:59.956Z,64.23
2018-11-14T18:46:26.545Z,64.92
2018-11-14T18:48:53.328Z,64.90
2018-11-14T18:51:20.600Z,64.03
2018-11-14T18:53:47.127Z,64.31
2018-11-14T18:56:14.740Z,63.42
2018-11-14T18:58:41.200Z,64.46
2018-11-14T19:01:07.819Z,64.60
2018-11-14T19:03:34.387Z,64.58
2018-11-14T19:06:02.537Z,64.70
2018-11-14T19:08:29.237Z,64.38
2018-11-14T19:10:55.744Z,64.20
2018-11-14T19:13:22.223Z,62.75
2018-11-14T19:15:48.686Z,62.54
2018-11-14T19:18:15.836Z,62.88
2018-11-14T19:20:42.969Z,62.95
2018-11-14T19:23:09.526Z,61.92
2018-11-14T19:25:36.183Z,61.67
2018-11-14T19:28:02.648Z,62.54
2018-11-14T19:30:30.102Z,62.22
2018-11-14T19:32:56.738Z,62.86
2018-11-14T19:35:23.869Z,62.54
2018-11-14T19:37:50.820Z,62.63
2018-11-14T19:40:18.203Z,62.50
2018-11-14T19:42:45.248Z,62.46
2018-11-14T19:45:11.720Z,63.19
2018-11-14T19:47:39.789Z,62.94
2018-11-14T19:50:06.831Z,62.47
2018-11-14T19:52:33.312Z,63.78
2018-11-14T19:54:59.832Z,64.08
2018-11-14T19:57:26.359Z,63.34
2018-11-14T19:59:52.819Z,62.81
2018-11-14T20:02:19.854Z,62.82
2018-11-14T20:04:47.091Z,62.88
2018-11-14T20:07:13.526Z,62.56
2018-11-14T20:09:40.130Z,61.84
2018-11-14T20:12:07.117Z,62.75
2018-11-14T20:14:33.613Z,63.99
2018-11-14T20:17:00.133Z,63.80
2018-11-14T20:19:26.618Z,63.56
2018-11-14T20:21:53.170Z,63.31
2018-11-14T20:24:19.668Z,63.09
2018-11-14T20:26:46.827Z,62.94
2018-11-14T20:29:13.285Z,63.17
2018-11-14T20:31:39.911Z,62.71
2018-11-14T20:34:08.009Z,63.11
2018-11-14T20:36:34.880Z,63.21
2018-11-14T20:39:01.557Z,63.13
2018-11-14T20:41:28.047Z,62.96
2018-11-14T20:43:54.553Z,62.67
2018-11-14T20:46:21.049Z,63.09
2018-11-14T20:48:47.601Z,63.80
2018-11-14T20:51:14.071Z,64.25
2018-11-14T20:53:40.576Z,64.56
2018-11-14T20:56:07.077Z,64.11
2018-11-14T20:58:33.532Z,63.42
2018-11-14T21:01:00.011Z,63.62
2018-11-14T21:03:26.629Z,63.51
2018-11-14T21:05:53.243Z,63.13
2018-11-14T21:08:19.840Z,63.43
2018-11-14T21:10:46.445Z,63.19
2018-11-14T21:13:13.053Z,63.39
2018-11-14T21:15:39.570Z,62.84
2018-11-14T21:18:06.112Z,63.13
2018-11-14T21:20:32.594Z,63.27
2018-11-14T21:22:59.156Z,62.88
2018-11-14T21:25:25.800Z,63.56
2018-11-14T21:27:52.317Z,64.60
2018-11-14T21:30:18.837Z,64.98
2018-11-14T21:32:46.393Z,64.78
2018-11-14T21:35:12.906Z,63.83
2018-11-14T21:37:39.429Z,63.67
2018-11-14T21:40:05.925Z,64.02
2018-11-14T21:42:32.627Z,64.08
2018-11-14T21:44:59.204Z,63.82
2018-11-14T21:47:25.632Z,63.59
2018-11-14T21:49:52.136Z,63.29
2018-11-14T21:52:18.608Z,64.01
2018-11-14T21:54:45.681Z,63.54
2018-11-14T21:57:12.337Z,64.23
2018-11-14T21:59:38.890Z,64.21
2018-11-14T22:02:05.763Z,64.37
2018-11-14T22:04:32.292Z,64.41
2018-11-14T22:06:58.765Z,64.09
2018-11-14T22:09:25.258Z,63.81
2018-11-14T22:11:52.021Z,63.13
2018-11-14T22:14:18.524Z,63.14
2018-11-14T22:16:45.823Z,62.91
2018-11-14T22:19:13.030Z,63.02
2018-11-14T22:21:41.508Z,63.32
2018-11-14T22:24:08.497Z,62.78
2018-11-14T22:26:35.647Z,63.59
2018-11-14T22:29:02.125Z,64.55
2018-11-14T22:31:28.624Z,66.00
2018-11-14T22:33:55.164Z,66.67
2018-11-14T22:36:21.799Z,66.39
2018-11-14T22:38:48.278Z,66.22
2018-11-14T22:41:14.859Z,65.66
2018-11-14T22:43:41.356Z,65.22
2018-11-14T22:46:07.805Z,64.18
2018-11-14T22:48:34.950Z,63.65
2018-11-14T22:51:01.545Z,63.33
2018-11-14T22:53:28.005Z,63.33
2018-11-14T22:55:54.612Z,63.11
2018-11-14T22:58:21.071Z,63.37
2018-11-14T23:00:47.623Z,63.66
2018-11-14T23:03:14.100Z,62.79
2018-11-14T23:05:40.656Z,63.42
2018-11-14T23:08:07.106Z,63.45
2018-11-14T23:10:33.630Z,63.33
2018-11-14T23:13:00.327Z,63.85
2018-11-14T23:15:27.054Z,63.54
2018-11-14T23:17:53.639Z,63.38
2018-11-14T23:20:20.165Z,64.11
2018-11-14T23:22:47.894Z,64.25
2018-11-14T23:25:14.475Z,64.35
2018-11-14T23:27:41.051Z,63.47
2018-11-14T23:30:07.799Z,63.21
2018-11-14T23:32:34.545Z,63.62
2018-11-14T23:35:01.025Z,62.44
2018-11-14T23:37:27.546Z,63.54
2018-11-14T23:39:53.980Z,63.32
2018-11-14T23:42:21.920Z,63.92
2018-11-14T23:44:48.433Z,65.08
2018-11-14T23:47:14.912Z,64.95
2018-11-14T23:49:41.702Z,64.90
2018-11-14T23:52:08.350Z,64.21
2018-11-14T23:54:34.825Z,63.35
2018-11-14T23:57:01.325Z,63.31
2018-11-14T23:59:27.777Z,63.04
